Terminal Aerodrome Forecast
Issued by NWS

Current Version | Previous Version | Text Only | Print | Product List | Glossary On
Versions: 1 2 3 4 5 6 7 8 9 10 11 12 13 14 15 16 17 18 19
000
FTUS43 KAPX 312334
TAFAPN
TAF
KAPN 312334Z 0100/0124 31008KT P6SM VCSH BKN080
     FM010200 29005KT P6SM SCT080
     FM011500 28007KT P6SM SCT050
     FM011800 28007KT P6SM VCSH BKN060=

USA.gov is the U.S. government's official web portal to all federal, state and local government web resources and services.